Christos Xxvii — SV4484 — position and weather

sailwx.info

Track history (hours):
 
Tides and Currents Weather Stations Pressure Air Temp Water Temp Dewpoint Dewpoint Depression Visibility Wind Speed Wind Dir Waves Ship Positions

Christos Xxvii

Last reported at 2017-Nov-24 12:41 UTC. Time now 2017-Nov-25 02:03 UTC.
Position N 37°58' E 023°34'.

Length 35 m; draft 4 m.

Type: Tug. MMSI: 237194900.

Date/timePositionNaut miles runAvg speedWind from/ knotsBaromVisibWave heightAir tempDewpointWater temp
2017-Nov-24 12:41N 37°58' E 023°34'0 0.0
2017-Nov-24 12:30N 37°58' E 023°34'0 0.0
2017-Nov-24 12:00N 37°58' E 023°34'0 0.0
2017-Nov-24 11:30N 37°58' E 023°34'0 0.0
2017-Nov-24 11:00N 37°58' E 023°34'0 0.0
2017-Nov-24 10:30N 37°58' E 023°34'1 1.4
2017-Nov-24 10:00N 37°58' E 023°33'1 1.4
2017-Nov-24 09:30N 37°58' E 023°34'0 0.0
2017-Nov-24 09:00N 37°58' E 023°34'0 0.0
2017-Nov-24 08:30N 37°58' E 023°34'0 0.0
2017-Nov-24 08:00N 37°58' E 023°34'0 0.0
2017-Nov-24 07:30N 37°58' E 023°34'0 0.0
2017-Nov-24 07:00N 37°58' E 023°34'0 0.1
2017-Nov-24 06:30N 37°58' E 023°34'0 0.1
2017-Nov-24 06:00N 37°58' E 023°34'0 0.0
2017-Nov-24 05:30N 37°58' E 023°34'0 0.0
2017-Nov-24 05:00N 37°58' E 023°34'0 0.0
2017-Nov-23 11:43N 37°58' E 023°34'0 0.0
2017-Nov-23 11:30N 37°58' E 023°34'0 0.0
2017-Nov-23 11:00N 37°58' E 023°34'0 0.0
2017-Nov-23 10:30N 37°58' E 023°34'0 0.0
2017-Nov-23 10:00N 37°58' E 023°34'0 0.0
2017-Nov-23 09:30N 37°58' E 023°34'0 0.0
2017-Nov-23 09:00N 37°58' E 023°34'0 0.0
2017-Nov-23 08:30N 37°58' E 023°34'0 0.0
2017-Nov-23 08:00N 37°58' E 023°34'0 0.0
2017-Nov-23 07:30N 37°58' E 023°34'0 0.0
2017-Nov-23 07:00N 37°58' E 023°34'0 0.0
2017-Nov-23 06:30N 37°58' E 023°34'0 0.0
2017-Nov-23 06:00N 37°58' E 023°34'0 0.0
2017-Nov-23 05:30N 37°58' E 023°34'0 0.0
2017-Nov-23 05:00N 37°58' E 023°34'0 0.0
2017-Nov-23 04:30N 37°58' E 023°34'  
2017-Nov-19 02:42N 37°58' E 023°33'1 5.6
2017-Nov-19 02:30N 37°57' E 023°35'1 1.1
2017-Nov-19 02:00N 37°57' E 023°35'0 0.6
2017-Nov-19 01:30N 37°57' E 023°35'0 0.0
2017-Nov-19 01:00N 37°57' E 023°35'0 0.0
2017-Nov-19 00:30N 37°57' E 023°35'0 0.0
2017-Nov-19 00:00N 37°57' E 023°35'0 0.0
2017-Nov-18 23:30N 37°57' E 023°35'0 0.0
2017-Nov-18 23:00N 37°57' E 023°35'0 0.6
2017-Nov-18 22:30N 37°57' E 023°36'1 2.0
2017-Nov-18 22:00N 37°56' E 023°36'3 5.2
2017-Nov-18 21:30N 37°58' E 023°33'0 0.0
2017-Nov-18 21:00N 37°58' E 023°33'0 0.0
2017-Nov-18 20:30N 37°58' E 023°33'0 0.0
2017-Nov-18 20:00N 37°58' E 023°33'0 0.0
2017-Nov-18 19:30N 37°58' E 023°33'0 0.0
2017-Nov-18 19:00N 37°58' E 023°33'0 0.0
2017-Nov-18 18:30N 37°58' E 023°33'0 0.0
2017-Nov-18 18:00N 37°58' E 023°33'0 0.0
2017-Nov-18 17:30N 37°58' E 023°33'0 0.0
2017-Nov-18 17:00N 37°58' E 023°33'0 0.0
2017-Nov-18 16:30N 37°58' E 023°33'0 0.0
2017-Nov-18 16:00N 37°58' E 023°33'0 0.0
2017-Nov-18 15:30N 37°58' E 023°33'0 0.0
2017-Nov-18 15:00N 37°58' E 023°33'0 0.0
2017-Nov-18 14:30N 37°58' E 023°33'0 0.0
2017-Nov-18 14:00N 37°58' E 023°33'0 0.0
2017-Nov-18 13:30N 37°58' E 023°33'0 0.0
2017-Nov-18 13:00N 37°58' E 023°33'0 0.0
2017-Nov-18 12:30N 37°58' E 023°33'0 0.0
2017-Nov-18 12:00N 37°58' E 023°33'0 0.0
2017-Nov-18 11:30N 37°58' E 023°33'0 0.0
2017-Nov-18 11:00N 37°58' E 023°33'0 0.0
2017-Nov-18 10:30N 37°58' E 023°33'2 3.9
2017-Nov-18 10:00N 37°60' E 023°33'3 5.3
2017-Nov-18 09:29N 38°02' E 023°35'0 0.4
2017-Nov-18 09:01N 38°02' E 023°36'0 0.5
2017-Nov-18 08:30N 38°01' E 023°36'1 2.5
2017-Nov-18 08:00N 38°01' E 023°34'3 6.6
2017-Nov-18 07:30N 37°58' E 023°33'0 0.6
2017-Nov-18 07:00N 37°58' E 023°33'0 0.0
2017-Nov-17 15:06N 37°58' E 023°33'0 0.4
2017-Nov-17 15:00N 37°58' E 023°33'2 4.8
2017-Nov-17 14:30N 37°56' E 023°36'1 2.7
2017-Nov-17 14:00N 37°56' E 023°34'2 3.7
2017-Nov-17 13:30N 37°58' E 023°33'1 1.5
2017-Nov-17 13:00N 37°58' E 023°33'4 7.8
2017-Nov-17 12:30N 38°01' E 023°36'0 0.0
2017-Nov-17 10:48N 38°01' E 023°36'0 0.0
2017-Nov-17 10:30N 38°01' E 023°36'0 0.0
2017-Nov-17 10:00N 38°01' E 023°36'0 0.0
2017-Nov-17 09:30N 38°01' E 023°36'0 0.2
2017-Nov-17 09:00N 38°02' E 023°36'0 0.3
2017-Nov-17 08:29N 38°02' E 023°35'2 4.3
2017-Nov-17 08:01N 38°00' E 023°33'2 3.2
2017-Nov-17 07:30N 37°59' E 023°33'1 2.3
2017-Nov-17 07:01N 37°58' E 023°33'0 0.0
2017-Nov-17 06:30N 37°58' E 023°33'0 0.0
2017-Nov-17 06:00N 37°58' E 023°33'0 0.0
2017-Nov-17 05:30N 37°58' E 023°33'0 0.0
2017-Nov-16 13:02N 37°58' E 023°33'0 0.0
2017-Nov-16 13:00N 37°58' E 023°33'5 9.6
2017-Nov-16 12:30N 38°02' E 023°31'1 2.2
2017-Nov-16 12:00N 38°01' E 023°31'2 3.7
2017-Nov-16 11:30N 37°60' E 023°33'2 4.2
2017-Nov-16 11:00N 37°58' E 023°33'0 0.2
2017-Nov-16 10:30N 37°58' E 023°33'0 0.0
2017-Nov-16 10:00N 37°58' E 023°33'0 0.0
2017-Nov-16 09:30N 37°58' E 023°33'0 0.0
2017-Nov-16 09:00N 37°58' E 023°33'0 0.0
2017-Nov-16 08:30N 37°58' E 023°33'0 0.0
2017-Nov-16 08:00N 37°58' E 023°33'0 0.7
2017-Nov-16 07:30N 37°58' E 023°33'0 0.7
2017-Nov-16 07:00N 37°58' E 023°33'0 0.0
2017-Nov-16 06:30N 37°58' E 023°33'1 1.1
2017-Nov-16 06:00N 37°57' E 023°33'0 0.0
2017-Nov-16 05:31N 37°57' E 023°33'1 0.0
2017-Nov-15 14:29N 37°58' E 023°33'0 0.7
2017-Nov-15 14:01N 37°57' E 023°33'0 0.3
2017-Nov-15 13:31N 37°58' E 023°33'0 0.2
2017-Nov-15 13:00N 37°58' E 023°33'0 0.3
2017-Nov-15 12:30N 37°58' E 023°33'0 0.0
2017-Nov-15 12:00N 37°58' E 023°33'0 0.0
2017-Nov-15 11:30N 37°58' E 023°33'4 8.2
2017-Nov-15 11:01N 38°01' E 023°36'0 0.0
2017-Nov-15 10:30N 38°01' E 023°36'0 0.0
2017-Nov-15 10:01N 38°01' E 023°36'0 0.1
2017-Nov-15 09:30N 38°02' E 023°36'0 0.2
2017-Nov-15 09:00N 38°01' E 023°35'0 0.0
2017-Nov-15 08:30N 38°01' E 023°35'4 8.7
2017-Nov-15 08:01N 37°57' E 023°33'0 0.6
2017-Nov-15 07:30N 37°58' E 023°33'0 0.0
2017-Nov-15 07:01N 37°58' E 023°33'0 0.0
2017-Nov-15 06:30N 37°58' E 023°33'0 0.0
2017-Nov-15 06:01N 37°58' E 023°33'2 3.0
2017-Nov-15 05:30N 37°57' E 023°35'0 0.7
2017-Nov-15 05:00N 37°57' E 023°35'0 0.7
2017-Nov-15 04:31N 37°57' E 023°35'1 2.6
2017-Nov-15 04:01N 37°58' E 023°33'0 0.0
2017-Nov-15 03:30N 37°58' E 023°33'  
Track history (hours):
 
Tides and Currents Weather Stations Pressure Air Temp Water Temp Dewpoint Dewpoint Depression Visibility Wind Speed Wind Dir Waves Ship Positions

Christos Xxvii

Last reported at 2017-Nov-24 12:41 UTC. Time now 2017-Nov-25 02:03 UTC.
Position N 37°58' E 023°34'.

Length 35 m; draft 4 m.

Type: Tug. MMSI: 237194900.

Date/timePositionNaut miles runAvg speedWind from/ knotsBaromVisibWave heightAir tempDewpointWater temp
2017-Nov-24 12:41N 37°58' E 023°34'0 0.0
2017-Nov-24 12:30N 37°58' E 023°34'0 0.0
2017-Nov-24 12:00N 37°58' E 023°34'0 0.0
2017-Nov-24 11:30N 37°58' E 023°34'0 0.0
2017-Nov-24 11:00N 37°58' E 023°34'0 0.0
2017-Nov-24 10:30N 37°58' E 023°34'1 1.4
2017-Nov-24 10:00N 37°58' E 023°33'1 1.4
2017-Nov-24 09:30N 37°58' E 023°34'0 0.0
2017-Nov-24 09:00N 37°58' E 023°34'0 0.0
2017-Nov-24 08:30N 37°58' E 023°34'0 0.0
2017-Nov-24 08:00N 37°58' E 023°34'0 0.0
2017-Nov-24 07:30N 37°58' E 023°34'0 0.0
2017-Nov-24 07:00N 37°58' E 023°34'0 0.1
2017-Nov-24 06:30N 37°58' E 023°34'0 0.1
2017-Nov-24 06:00N 37°58' E 023°34'0 0.0
2017-Nov-24 05:30N 37°58' E 023°34'0 0.0
2017-Nov-24 05:00N 37°58' E 023°34'0 0.0
2017-Nov-23 11:43N 37°58' E 023°34'0 0.0
2017-Nov-23 11:30N 37°58' E 023°34'0 0.0
2017-Nov-23 11:00N 37°58' E 023°34'0 0.0
2017-Nov-23 10:30N 37°58' E 023°34'0 0.0
2017-Nov-23 10:00N 37°58' E 023°34'0 0.0
2017-Nov-23 09:30N 37°58' E 023°34'0 0.0
2017-Nov-23 09:00N 37°58' E 023°34'0 0.0
2017-Nov-23 08:30N 37°58' E 023°34'0 0.0
2017-Nov-23 08:00N 37°58' E 023°34'0 0.0
2017-Nov-23 07:30N 37°58' E 023°34'0 0.0
2017-Nov-23 07:00N 37°58' E 023°34'0 0.0
2017-Nov-23 06:30N 37°58' E 023°34'0 0.0
2017-Nov-23 06:00N 37°58' E 023°34'0 0.0
2017-Nov-23 05:30N 37°58' E 023°34'0 0.0
2017-Nov-23 05:00N 37°58' E 023°34'0 0.0
2017-Nov-23 04:30N 37°58' E 023°34'  
2017-Nov-19 02:42N 37°58' E 023°33'1 5.6
2017-Nov-19 02:30N 37°57' E 023°35'1 1.1
2017-Nov-19 02:00N 37°57' E 023°35'0 0.6
2017-Nov-19 01:30N 37°57' E 023°35'0 0.0
2017-Nov-19 01:00N 37°57' E 023°35'0 0.0
2017-Nov-19 00:30N 37°57' E 023°35'0 0.0
2017-Nov-19 00:00N 37°57' E 023°35'0 0.0
2017-Nov-18 23:30N 37°57' E 023°35'0 0.0
2017-Nov-18 23:00N 37°57' E 023°35'0 0.6
2017-Nov-18 22:30N 37°57' E 023°36'1 2.0
2017-Nov-18 22:00N 37°56' E 023°36'3 5.2
2017-Nov-18 21:30N 37°58' E 023°33'0 0.0
2017-Nov-18 21:00N 37°58' E 023°33'0 0.0
2017-Nov-18 20:30N 37°58' E 023°33'0 0.0
2017-Nov-18 20:00N 37°58' E 023°33'0 0.0
2017-Nov-18 19:30N 37°58' E 023°33'0 0.0
2017-Nov-18 19:00N 37°58' E 023°33'0 0.0
2017-Nov-18 18:30N 37°58' E 023°33'0 0.0
2017-Nov-18 18:00N 37°58' E 023°33'0 0.0
2017-Nov-18 17:30N 37°58' E 023°33'0 0.0
2017-Nov-18 17:00N 37°58' E 023°33'0 0.0
2017-Nov-18 16:30N 37°58' E 023°33'0 0.0
2017-Nov-18 16:00N 37°58' E 023°33'0 0.0
2017-Nov-18 15:30N 37°58' E 023°33'0 0.0
2017-Nov-18 15:00N 37°58' E 023°33'0 0.0
2017-Nov-18 14:30N 37°58' E 023°33'0 0.0
2017-Nov-18 14:00N 37°58' E 023°33'0 0.0
2017-Nov-18 13:30N 37°58' E 023°33'0 0.0
2017-Nov-18 13:00N 37°58' E 023°33'0 0.0
2017-Nov-18 12:30N 37°58' E 023°33'0 0.0
2017-Nov-18 12:00N 37°58' E 023°33'0 0.0
2017-Nov-18 11:30N 37°58' E 023°33'0 0.0
2017-Nov-18 11:00N 37°58' E 023°33'0 0.0
2017-Nov-18 10:30N 37°58' E 023°33'2 3.9
2017-Nov-18 10:00N 37°60' E 023°33'3 5.3
2017-Nov-18 09:29N 38°02' E 023°35'0 0.4
2017-Nov-18 09:01N 38°02' E 023°36'0 0.5
2017-Nov-18 08:30N 38°01' E 023°36'1 2.5
2017-Nov-18 08:00N 38°01' E 023°34'3 6.6
2017-Nov-18 07:30N 37°58' E 023°33'0 0.6
2017-Nov-18 07:00N 37°58' E 023°33'0 0.0
2017-Nov-17 15:06N 37°58' E 023°33'0 0.4
2017-Nov-17 15:00N 37°58' E 023°33'2 4.8
2017-Nov-17 14:30N 37°56' E 023°36'1 2.7
2017-Nov-17 14:00N 37°56' E 023°34'2 3.7
2017-Nov-17 13:30N 37°58' E 023°33'1 1.5
2017-Nov-17 13:00N 37°58' E 023°33'4 7.8
2017-Nov-17 12:30N 38°01' E 023°36'0 0.0
2017-Nov-17 10:48N 38°01' E 023°36'0 0.0
2017-Nov-17 10:30N 38°01' E 023°36'0 0.0
2017-Nov-17 10:00N 38°01' E 023°36'0 0.0
2017-Nov-17 09:30N 38°01' E 023°36'0 0.2
2017-Nov-17 09:00N 38°02' E 023°36'0 0.3
2017-Nov-17 08:29N 38°02' E 023°35'2 4.3
2017-Nov-17 08:01N 38°00' E 023°33'2 3.2
2017-Nov-17 07:30N 37°59' E 023°33'1 2.3
2017-Nov-17 07:01N 37°58' E 023°33'0 0.0
2017-Nov-17 06:30N 37°58' E 023°33'0 0.0
2017-Nov-17 06:00N 37°58' E 023°33'0 0.0
2017-Nov-17 05:30N 37°58' E 023°33'0 0.0
2017-Nov-16 13:02N 37°58' E 023°33'0 0.0
2017-Nov-16 13:00N 37°58' E 023°33'5 9.6
2017-Nov-16 12:30N 38°02' E 023°31'1 2.2
2017-Nov-16 12:00N 38°01' E 023°31'2 3.7
2017-Nov-16 11:30N 37°60' E 023°33'2 4.2
2017-Nov-16 11:00N 37°58' E 023°33'0 0.2
2017-Nov-16 10:30N 37°58' E 023°33'0 0.0
2017-Nov-16 10:00N 37°58' E 023°33'0 0.0
2017-Nov-16 09:30N 37°58' E 023°33'0 0.0
2017-Nov-16 09:00N 37°58' E 023°33'0 0.0
2017-Nov-16 08:30N 37°58' E 023°33'0 0.0
2017-Nov-16 08:00N 37°58' E 023°33'0 0.7
2017-Nov-16 07:30N 37°58' E 023°33'0 0.7
2017-Nov-16 07:00N 37°58' E 023°33'0 0.0
2017-Nov-16 06:30N 37°58' E 023°33'1 1.1
2017-Nov-16 06:00N 37°57' E 023°33'0 0.0
2017-Nov-16 05:31N 37°57' E 023°33'1 0.0
2017-Nov-15 14:29N 37°58' E 023°33'0 0.7
2017-Nov-15 14:01N 37°57' E 023°33'0 0.3
2017-Nov-15 13:31N 37°58' E 023°33'0 0.2
2017-Nov-15 13:00N 37°58' E 023°33'0 0.3
2017-Nov-15 12:30N 37°58' E 023°33'0 0.0
2017-Nov-15 12:00N 37°58' E 023°33'0 0.0
2017-Nov-15 11:30N 37°58' E 023°33'4 8.2
2017-Nov-15 11:01N 38°01' E 023°36'0 0.0
2017-Nov-15 10:30N 38°01' E 023°36'0 0.0
2017-Nov-15 10:01N 38°01' E 023°36'0 0.1
2017-Nov-15 09:30N 38°02' E 023°36'0 0.2
2017-Nov-15 09:00N 38°01' E 023°35'0 0.0
2017-Nov-15 08:30N 38°01' E 023°35'4 8.7
2017-Nov-15 08:01N 37°57' E 023°33'0 0.6
2017-Nov-15 07:30N 37°58' E 023°33'0 0.0
2017-Nov-15 07:01N 37°58' E 023°33'0 0.0
2017-Nov-15 06:30N 37°58' E 023°33'0 0.0
2017-Nov-15 06:01N 37°58' E 023°33'2 3.0
2017-Nov-15 05:30N 37°57' E 023°35'0 0.7
2017-Nov-15 05:00N 37°57' E 023°35'0 0.7
2017-Nov-15 04:31N 37°57' E 023°35'1 2.6
2017-Nov-15 04:01N 37°58' E 023°33'0 0.0
2017-Nov-15 03:30N 37°58' E 023°33'  

Dump ship's entire track history